Time;durP1;ratioP1;P1;durP2;ratioP2;P2;SDS_P1;SDS_P2;PMS_P1;PMS_P2;Temp;Humidity;BMP_temperature;BMP_pressure;BME280_temperature;BME280_humidity;BME280_pressure;Samples;Min_cycle;Max_cycle;Signal;HPM_P1;HPM_P2
2021/10/16 00:01:59;;;;;;;8.48;7.68;;;;;;;16.67;48.69;95645.56;4951415;28;20138;-68
2021/10/16 00:04:24;;;;;;;9.93;7.97;;;;;;;16.59;48.87;95654.50;4950454;28;20039;-68
2021/10/16 00:06:50;;;;;;;7.72;7.03;;;;;;;16.51;49.40;95658.81;4950678;28;20118;-68
2021/10/16 00:09:15;;;;;;;8.70;7.80;;;;;;;16.23;49.55;95660.47;4950520;28;20043;-68
2021/10/16 00:11:41;;;;;;;8.45;7.65;;;;;;;16.38;49.23;95658.00;4950947;28;20020;-68
2021/10/16 00:14:06;;;;;;;9.52;8.13;;;;;;;16.53;49.03;95647.75;4951136;28;20541;-68
2021/10/16 00:16:32;;;;;;;8.52;7.72;;;;;;;16.60;48.61;95658.75;4950834;28;20563;-68
2021/10/16 00:18:57;;;;;;;7.43;6.68;;;;;;;17.06;48.06;95659.63;4949144;28;20051;-68
2021/10/16 00:21:23;;;;;;;8.48;7.57;;;;;;;17.13;47.38;95659.84;4964961;28;20098;-68
2021/10/16 00:23:49;;;;;;;8.73;7.82;;;;;;;16.91;47.61;95655.66;4950475;28;20110;-68
2021/10/16 00:26:15;;;;;;;16.60;8.52;;;;;;;17.29;46.90;95663.47;4951249;28;20659;-68
2021/10/16 00:28:40;;;;;;;11.35;8.45;;;;;;;17.03;47.24;95653.00;4950459;28;20398;-68
2021/10/16 00:31:06;;;;;;;8.88;8.07;;;;;;;16.86;47.60;95655.88;4950541;28;20046;-68
2021/10/16 00:33:31;;;;;;;8.57;7.68;;;;;;;16.98;47.98;95661.28;4950316;28;20041;-68
2021/10/16 00:35:58;;;;;;;8.90;7.80;;;;;;;17.01;47.54;95652.56;4948363;28;20581;-68
2021/10/16 00:38:23;;;;;;;9.93;7.80;;;;;;;17.09;47.48;95657.03;4952149;28;20403;-68
2021/10/16 00:40:49;;;;;;;8.80;7.95;;;;;;;16.54;48.53;95660.09;4950051;28;20034;-68
2021/10/16 00:43:14;;;;;;;8.68;7.82;;;;;;;16.67;48.42;95659.00;4950158;28;20051;-66
2021/10/16 00:45:40;;;;;;;10.65;8.30;;;;;;;17.00;47.65;95653.69;4949438;28;20122;-68
2021/10/16 00:48:05;;;;;;;8.73;7.82;;;;;;;17.23;47.35;95650.59;4950191;28;20043;-69
2021/10/16 00:50:31;;;;;;;8.85;8.05;;;;;;;17.35;46.92;95650.59;4951376;28;20019;-68
2021/10/16 00:52:57;;;;;;;9.90;8.45;;;;;;;17.41;46.70;95652.75;4949690;28;20039;-67
2021/10/16 00:55:23;;;;;;;9.50;8.60;;;;;;;17.28;46.87;95636.91;4950180;28;20295;-67
2021/10/16 00:57:49;;;;;;;9.80;8.90;;;;;;;17.39;46.61;95643.44;4949026;28;20548;-68
2021/10/16 01:00:15;;;;;;;10.32;9.23;;;;;;;17.35;46.48;95642.53;4949953;28;20126;-67
2021/10/16 01:02:41;;;;;;;9.35;8.38;;;;;;;17.08;46.85;95639.34;4949845;28;20019;-67
2021/10/16 01:05:07;;;;;;;9.13;8.20;;;;;;;17.22;46.66;95649.00;4951398;28;20374;-68
2021/10/16 01:07:35;;;;;;;9.40;8.50;;;;;;;17.14;46.79;95651.44;4949867;28;20687;-68
2021/10/16 01:10:00;;;;;;;10.55;9.57;;;;;;;17.25;46.81;95645.63;4949500;28;20043;-68
2021/10/16 01:12:29;;;;;;;11.18;9.90;;;;;;;17.23;46.83;95650.59;4950363;28;20112;-68
2021/10/16 01:14:58;;;;;;;11.23;9.75;;;;;;;16.93;46.62;95642.66;4949164;28;20054;-68
2021/10/16 01:17:25;;;;;;;10.93;9.88;;;;;;;17.07;47.10;95645.06;4952296;28;20034;-67
2021/10/16 01:19:55;;;;;;;10.70;9.70;;;;;;;17.30;46.52;95646.25;4948901;28;20040;-68
2021/10/16 01:22:22;;;;;;;12.48;9.50;;;;;;;17.23;46.47;95637.13;4949325;28;20047;-68
2021/10/16 01:24:49;;;;;;;12.93;9.90;;;;;;;17.45;46.30;95647.47;4949460;28;20043;-68
2021/10/16 01:27:15;;;;;;;10.82;9.75;;;;;;;17.34;46.44;95638.25;4949857;28;20465;-68
2021/10/16 01:29:41;;;;;;;11.20;9.98;;;;;;;17.49;46.15;95647.59;4948206;28;20031;-68
2021/10/16 01:32:07;;;;;;;10.20;9.30;;;;;;;17.52;46.09;95646.91;4951742;28;20074;-67
2021/10/16 01:34:33;;;;;;;10.63;9.57;;;;;;;17.49;46.07;95636.81;4947760;28;20062;-68
2021/10/16 01:36:58;;;;;;;10.40;9.43;;;;;;;17.46;46.05;95634.81;4948154;28;20062;-68
2021/10/16 01:39:23;;;;;;;10.00;9.15;;;;;;;17.49;45.95;95639.50;4949107;28;20055;-68
2021/10/16 01:41:49;;;;;;;11.88;9.02;;;;;;;17.62;45.98;95641.88;4949488;28;20038;-69
2021/10/16 01:44:15;;;;;;;9.40;8.63;;;;;;;17.81;46.02;95640.53;4951219;28;20540;-69
2021/10/16 01:46:42;;;;;;;8.70;7.97;;;;;;;17.92;45.87;95639.00;4948582;28;20509;-68
2021/10/16 01:49:13;;;;;;;9.00;8.13;;;;;;;17.89;45.62;95626.19;4949111;28;20069;-68
2021/10/16 01:51:39;;;;;;;8.75;7.95;;;;;;;17.96;45.78;95620.22;4948869;28;20038;-68
2021/10/16 01:54:05;;;;;;;10.60;7.72;;;;;;;18.11;45.85;95633.78;4948915;28;20031;-68
2021/10/16 01:56:31;;;;;;;9.00;8.13;;;;;;;18.17;45.57;95629.75;4951213;28;20682;-67
2021/10/16 01:58:57;;;;;;;8.25;7.63;;;;;;;18.18;45.60;95628.63;4949214;28;20055;-68
2021/10/16 02:01:22;;;;;;;15.90;8.63;;;;;;;18.21;45.44;95620.97;4949683;28;20047;-68
2021/10/16 02:03:47;;;;;;;12.93;8.70;;;;;;;18.19;45.53;95624.00;4949523;28;20094;-68
2021/10/16 02:06:14;;;;;;;9.57;7.72;;;;;;;18.13;45.75;95620.78;4949073;28;20609;-68
2021/10/16 02:08:39;;;;;;;8.80;8.00;;;;;;;18.10;45.44;95616.06;4949029;28;20031;-68
2021/10/16 02:11:05;;;;;;;8.95;8.02;;;;;;;18.01;45.31;95618.09;4949915;28;20031;-68
2021/10/16 02:13:31;;;;;;;9.77;8.65;;;;;;;17.91;45.48;95621.25;4949139;28;20039;-68
2021/10/16 02:15:56;;;;;;;9.93;8.93;;;;;;;17.69;45.51;95609.03;4949369;28;20037;-68
2021/10/16 02:18:21;;;;;;;9.23;8.43;;;;;;;17.74;45.92;95616.13;4949555;28;20509;-68
2021/10/16 02:20:47;;;;;;;9.95;9.05;;;;;;;17.76;46.19;95616.56;4948293;28;20063;-69
2021/10/16 02:23:12;;;;;;;8.85;7.50;;;;;;;17.81;46.27;95614.44;4950739;28;20457;-68
2021/10/16 02:25:38;;;;;;;8.85;7.95;;;;;;;17.79;46.28;95616.66;4948580;28;20834;-68
2021/10/16 02:28:03;;;;;;;12.60;8.27;;;;;;;17.53;46.64;95622.38;4948292;28;20050;-68
2021/10/16 02:30:29;;;;;;;9.05;7.60;;;;;;;17.63;46.75;95616.53;4948693;28;20090;-69
2021/10/16 02:32:54;;;;;;;8.43;7.63;;;;;;;17.83;46.01;95611.41;4948994;28;20031;-69
2021/10/16 02:35:19;;;;;;;8.68;7.57;;;;;;;17.72;46.13;95613.75;4950660;28;20363;-69
2021/10/16 02:37:45;;;;;;;9.90;8.30;;;;;;;17.87;45.88;95615.78;4949060;28;20122;-67
2021/10/16 02:40:11;;;;;;;8.35;7.47;;;;;;;17.30;47.28;95621.22;4948890;28;20298;-68
2021/10/16 02:42:36;;;;;;;8.38;7.60;;;;;;;17.26;47.23;95617.66;4949061;28;20067;-68
2021/10/16 02:45:02;;;;;;;10.10;8.38;;;;;;;17.24;47.46;95620.66;4947550;28;20041;-68
2021/10/16 02:47:30;;;;;;;10.15;9.18;;;;;;;17.23;47.38;95610.25;4951215;28;20027;-68
2021/10/16 02:49:57;;;;;;;9.18;8.27;;;;;;;17.30;47.36;95618.53;4948459;28;20498;-68
2021/10/16 02:52:23;;;;;;;9.30;8.38;;;;;;;17.11;47.46;95614.50;4948770;28;20440;-68
2021/10/16 02:54:48;;;;;;;9.65;8.82;;;;;;;16.88;47.67;95610.63;4948464;28;20043;-68
2021/10/16 02:57:14;;;;;;;10.15;8.82;;;;;;;16.70;48.32;95619.97;4949264;28;20118;-68
2021/10/16 02:59:39;;;;;;;9.70;8.80;;;;;;;16.43;48.64;95615.94;4952029;28;20659;-69
2021/10/16 03:02:04;;;;;;;10.02;8.13;;;;;;;16.29;49.32;95635.78;4954297;28;20033;-68
2021/10/16 03:04:30;;;;;;;10.07;8.90;;;;;;;16.21;49.39;95622.44;4952295;28;20043;-68
2021/10/16 03:06:55;;;;;;;12.02;8.65;;;;;;;16.02;49.96;95631.72;4951998;28;20371;-68
2021/10/16 03:09:20;;;;;;;9.93;9.02;;;;;;;15.85;50.52;95631.81;4950746;28;20134;-68
2021/10/16 03:11:46;;;;;;;10.38;9.13;;;;;;;15.65;51.42;95635.25;4952512;28;20023;-68
2021/10/16 03:14:11;;;;;;;10.32;9.30;;;;;;;15.32;52.27;95633.97;4954081;28;20118;-68
2021/10/16 03:16:37;;;;;;;11.82;10.63;;;;;;;15.42;51.97;95632.03;4952667;28;20806;-68
2021/10/16 03:19:02;;;;;;;11.27;10.02;;;;;;;15.93;50.54;95624.84;4952284;28;20122;-68
2021/10/16 03:21:27;;;;;;;10.68;9.52;;;;;;;16.27;49.79;95629.94;4951816;28;20043;-68
2021/10/16 03:23:53;;;;;;;9.63;8.73;;;;;;;16.46;49.21;95620.66;4951725;28;20458;-68
2021/10/16 03:26:18;;;;;;;11.60;9.93;;;;;;;16.30;49.07;95628.53;4952955;28;20023;-68
2021/10/16 03:28:43;;;;;;;9.80;8.90;;;;;;;16.63;48.78;95623.16;4951933;28;20039;-68
2021/10/16 03:31:09;;;;;;;10.80;9.93;;;;;;;16.69;48.51;95621.88;4952359;28;20490;-68
2021/10/16 03:33:34;;;;;;;9.35;8.45;;;;;;;16.73;48.54;95608.56;4951933;28;20126;-68
2021/10/16 03:36:00;;;;;;;9.77;8.98;;;;;;;16.87;48.54;95625.19;4951518;28;20117;-68
2021/10/16 03:38:25;;;;;;;10.55;9.55;;;;;;;16.89;48.20;95607.63;4952084;28;20024;-68
2021/10/16 03:40:50;;;;;;;11.45;10.38;;;;;;;16.95;48.20;95612.78;4951500;28;20094;-68
2021/10/16 03:43:16;;;;;;;11.02;9.98;;;;;;;17.01;48.08;95620.31;4951335;28;20058;-69
2021/10/16 03:45:41;;;;;;;10.90;9.95;;;;;;;17.05;47.97;95623.91;4951768;28;20039;-68
2021/10/16 03:48:07;;;;;;;10.40;9.35;;;;;;;17.06;47.99;95614.72;4951564;28;20031;-68
2021/10/16 03:50:34;;;;;;;10.05;9.02;;;;;;;16.98;47.71;95620.16;4952753;28;20030;-68
2021/10/16 03:53:00;;;;;;;10.52;9.60;;;;;;;16.25;49.57;95628.72;4950792;28;20040;-68
2021/10/16 03:55:26;;;;;;;11.20;10.10;;;;;;;16.58;48.60;95620.69;4951002;28;20032;-69
2021/10/16 03:57:52;;;;;;;11.05;10.15;;;;;;;16.53;48.64;95619.03;4949885;28;20142;-67
2021/10/16 04:00:21;;;;;;;11.02;9.80;;;;;;;16.60;48.63;95632.69;4951000;28;20106;-68
2021/10/16 04:02:49;;;;;;;13.80;9.73;;;;;;;16.00;49.73;95633.94;4950999;28;20082;-69
2021/10/16 04:05:15;;;;;;;10.52;9.40;;;;;;;15.14;52.49;95643.16;4952615;28;20379;-68
2021/10/16 04:07:41;;;;;;;12.40;11.20;;;;;;;13.69;56.83;95641.00;4949778;28;20042;-67
2021/10/16 04:10:07;;;;;;;12.50;11.20;;;;;;;13.79;56.87;95643.38;4949777;28;20528;-68
2021/10/16 04:12:33;;;;;;;14.77;12.30;;;;;;;13.08;59.08;95634.59;4951083;28;20397;-68
2021/10/16 04:14:58;;;;;;;16.77;13.95;;;;;;;13.96;56.61;95634.59;4950889;28;20044;-68
2021/10/16 04:17:23;;;;;;;20.00;14.30;;;;;;;13.41;57.45;95635.88;4951897;28;20725;-68
2021/10/16 04:19:49;;;;;;;20.08;14.80;;;;;;;14.01;56.49;95650.47;4950781;28;20083;-67
2021/10/16 04:22:14;;;;;;;16.58;15.00;;;;;;;14.01;56.08;95640.56;4949976;28;20042;-68
2021/10/16 04:24:39;;;;;;;18.15;15.50;;;;;;;13.83;56.97;95638.19;4950173;28;20072;-67
2021/10/16 04:27:05;;;;;;;19.58;15.60;;;;;;;14.75;54.78;95636.19;4950560;28;20590;-68
2021/10/16 04:29:30;;;;;;;19.95;16.88;;;;;;;14.63;53.86;95631.47;4952310;28;20409;-67
2021/10/16 04:31:56;;;;;;;19.98;17.75;;;;;;;14.87;53.51;95636.31;4950587;28;20054;-68
2021/10/16 04:34:22;;;;;;;22.58;17.23;;;;;;;14.98;52.86;95634.84;4948692;28;20716;-69
2021/10/16 04:36:47;;;;;;;18.83;16.90;;;;;;;14.81;53.38;95632.22;4949978;28;20083;-67
2021/10/16 04:39:12;;;;;;;20.15;16.65;;;;;;;14.88;53.06;95629.06;4956438;28;20545;-67
2021/10/16 04:41:38;;;;;;;21.10;18.17;;;;;;;15.14;52.05;95637.81;4952013;28;20157;-68
2021/10/16 04:44:04;;;;;;;19.95;17.67;;;;;;;15.40;51.69;95645.75;4950209;28;20045;-68
2021/10/16 04:46:30;;;;;;;20.52;16.77;;;;;;;15.34;51.69;95647.03;4949041;28;20050;-68
2021/10/16 04:48:55;;;;;;;20.50;17.35;;;;;;;15.51;51.32;95624.75;4948701;28;20114;-67
2021/10/16 04:51:21;;;;;;;23.17;17.77;;;;;;;15.70;50.91;95627.03;4950057;28;20058;-68
2021/10/16 04:53:46;;;;;;;21.08;17.65;;;;;;;15.54;51.10;95629.44;4948589;28;20082;-68
2021/10/16 04:56:11;;;;;;;22.52;19.35;;;;;;;15.73;51.26;95637.13;4951917;28;20027;-67
2021/10/16 04:58:37;;;;;;;18.35;16.30;;;;;;;15.63;50.88;95634.78;4948899;28;20514;-67
2021/10/16 05:01:02;;;;;;;21.27;17.83;;;;;;;15.67;50.82;95633.84;4948900;28;20112;-67
2021/10/16 05:03:28;;;;;;;20.38;17.20;;;;;;;15.83;50.12;95631.38;4950478;28;20103;-67
2021/10/16 05:05:53;;;;;;;23.70;18.75;;;;;;;15.74;50.63;95634.09;4949874;28;20666;-68
2021/10/16 05:08:19;;;;;;;20.30;18.25;;;;;;;15.90;50.17;95633.53;4951639;28;20023;-67
2021/10/16 05:10:45;;;;;;;23.17;19.45;;;;;;;15.97;50.14;95634.59;4949749;28;20051;-67
2021/10/16 05:13:10;;;;;;;22.58;18.98;;;;;;;15.94;50.01;95629.09;4950039;28;20122;-67
2021/10/16 05:15:35;;;;;;;21.70;18.77;;;;;;;15.88;49.98;95636.56;4948746;28;20055;-67
2021/10/16 05:18:01;;;;;;;24.58;19.05;;;;;;;15.80;50.22;95626.66;4950458;28;20083;-68
2021/10/16 05:20:26;;;;;;;23.48;19.13;;;;;;;15.78;50.23;95634.25;4951184;28;20557;-68
2021/10/16 05:22:52;;;;;;;25.95;20.42;;;;;;;15.71;50.42;95634.75;4949827;28;20027;-73
2021/10/16 05:25:17;;;;;;;31.55;21.23;;;;;;;15.71;50.55;95628.59;4948939;28;20067;-69
2021/10/16 05:27:43;;;;;;;28.73;21.95;;;;;;;15.82;50.23;95643.22;4950504;28;20075;-71
2021/10/16 05:30:09;;;;;;;37.38;23.38;;;;;;;15.86;50.33;95639.53;4949610;28;20054;-73
2021/10/16 05:32:35;;;;;;;22.60;18.17;;;;;;;15.88;49.97;95647.28;4951769;28;20034;-69
2021/10/16 05:35:00;;;;;;;21.00;17.15;;;;;;;15.84;49.88;95638.31;4963489;28;20067;-69
2021/10/16 05:37:26;;;;;;;23.08;18.63;;;;;;;15.77;50.23;95633.47;4949151;28;20059;-69
2021/10/16 05:39:51;;;;;;;25.30;19.58;;;;;;;15.86;49.97;95644.13;4949315;28;20459;-68
2021/10/16 05:42:17;;;;;;;25.90;19.25;;;;;;;15.88;50.14;95644.59;4949893;28;20031;-70
2021/10/16 05:44:42;;;;;;;21.88;18.08;;;;;;;15.85;50.20;95643.34;4949222;28;20444;-69
2021/10/16 05:47:08;;;;;;;18.67;16.20;;;;;;;15.66;50.23;95615.38;4950684;28;20025;-72
2021/10/16 05:49:33;;;;;;;23.27;17.80;;;;;;;15.46;50.46;95644.47;4949739;28;20043;-70
2021/10/16 05:51:58;;;;;;;22.35;17.27;;;;;;;15.41;50.75;95654.59;4949341;28;20063;-64
2021/10/16 05:54:24;;;;;;;19.70;17.48;;;;;;;15.63;50.64;95654.34;4948918;28;20713;-64
2021/10/16 05:56:49;;;;;;;27.70;19.20;;;;;;;15.70;50.19;95651.94;4949282;28;20495;-65
2021/10/16 05:59:15;;;;;;;20.17;17.98;;;;;;;15.72;50.04;95657.00;4949712;29;20027;-65
2021/10/16 06:01:40;;;;;;;25.13;19.05;;;;;;;15.62;50.40;95658.13;4949336;28;20658;-65
2021/10/16 06:04:05;;;;;;;18.52;16.63;;;;;;;15.69;50.17;95649.59;4949267;28;20036;-65
2021/10/16 06:06:31;;;;;;;20.17;17.15;;;;;;;15.79;50.13;95658.06;4948996;28;20031;-66
2021/10/16 06:08:56;;;;;;;20.67;17.25;;;;;;;15.80;50.24;95661.53;4948333;28;20091;-65
2021/10/16 06:11:22;;;;;;;25.08;17.95;;;;;;;15.74;49.75;95657.47;4950477;28;20050;-65
2021/10/16 06:13:47;;;;;;;16.85;15.07;;;;;;;15.70;50.16;95651.16;4948731;28;20036;-67
2021/10/16 06:16:13;;;;;;;16.00;14.45;;;;;;;15.68;50.06;95664.91;4949295;28;20035;-68
2021/10/16 06:18:40;;;;;;;17.10;14.07;;;;;;;15.84;49.86;95668.59;4948687;28;20038;-66
2021/10/16 06:21:06;;;;;;;21.73;18.02;;;;;;;15.80;49.64;95669.56;4947138;28;20043;-67
2021/10/16 06:23:31;;;;;;;18.77;15.15;;;;;;;15.80;49.82;95670.34;4950574;28;20031;-67
2021/10/16 06:25:57;;;;;;;20.90;16.02;;;;;;;15.74;49.75;95671.66;4949052;28;20079;-68
2021/10/16 06:28:22;;;;;;;18.05;14.27;;;;;;;15.71;49.88;95663.47;4949204;28;20036;-66
2021/10/16 06:30:48;;;;;;;14.35;12.93;;;;;;;15.67;49.63;95670.59;4948829;28;20172;-71
2021/10/16 06:33:13;;;;;;;13.43;12.15;;;;;;;15.63;49.82;95670.44;4950598;28;20043;-65
2021/10/16 06:35:41;;;;;;;12.70;11.48;;;;;;;15.67;49.98;95679.44;4953480;28;20024;-65
2021/10/16 06:38:07;;;;;;;12.32;11.23;;;;;;;15.61;50.20;95672.66;4953370;28;20142;-68
2021/10/16 06:40:32;;;;;;;12.70;11.30;;;;;;;15.64;49.98;95677.38;4952033;28;20119;-66
2021/10/16 06:42:58;;;;;;;15.95;13.40;;;;;;;15.69;49.43;95687.16;4952247;28;20043;-65
2021/10/16 06:45:23;;;;;;;16.83;13.02;;;;;;;15.71;49.73;95685.69;4952480;28;20066;-70
2021/10/16 06:47:48;;;;;;;15.25;13.13;;;;;;;15.76;49.82;95692.78;4951121;28;20393;-66
2021/10/16 06:50:14;;;;;;;18.75;13.35;;;;;;;15.56;49.86;95697.75;4954145;28;20027;-66
2021/10/16 06:52:39;;;;;;;17.73;13.80;;;;;;;15.67;50.16;95698.19;4950303;28;20083;-67
2021/10/16 06:55:05;;;;;;;13.63;12.43;;;;;;;15.73;49.83;95696.91;4950207;28;20035;-66
2021/10/16 06:57:30;;;;;;;16.88;14.63;;;;;;;15.83;49.82;95709.16;4952252;28;20094;-68
2021/10/16 06:59:56;;;;;;;16.88;14.55;;;;;;;15.81;50.05;95706.78;4951659;28;20396;-66
2021/10/16 07:02:21;;;;;;;21.50;16.42;;;;;;;15.80;50.00;95707.13;4954189;28;20023;-66
2021/10/16 07:04:47;;;;;;;21.58;15.60;;;;;;;15.82;50.19;95713.75;4951806;28;20046;-68
2021/10/16 07:07:12;;;;;;;16.80;14.00;;;;;;;15.64;50.18;95682.75;4951591;28;20614;-68
2021/10/16 07:09:37;;;;;;;16.80;14.23;;;;;;;15.33;51.25;95707.13;4951378;28;20122;-66
2021/10/16 07:12:03;;;;;;;19.95;15.50;;;;;;;14.87;53.13;95711.31;4952008;28;20031;-68
2021/10/16 07:14:29;;;;;;;16.98;15.35;;;;;;;15.30;52.24;95710.41;4953942;28;20035;-70
2021/10/16 07:16:54;;;;;;;18.35;15.38;;;;;;;15.15;52.54;95708.25;4953594;28;20043;-70
2021/10/16 07:19:19;;;;;;;28.45;19.60;;;;;;;14.72;53.93;95709.88;4951944;28;20425;-70
2021/10/16 07:21:45;;;;;;;23.80;19.73;;;;;;;14.37;55.02;95711.75;4951531;28;20031;-69
2021/10/16 07:24:11;;;;;;;20.40;18.15;;;;;;;14.80;54.01;95717.16;4950073;28;20043;-70
2021/10/16 07:26:38;;;;;;;26.02;18.17;;;;;;;14.95;53.49;95709.72;4953982;28;20082;-70
2021/10/16 07:29:03;;;;;;;22.67;18.67;;;;;;;15.40;52.65;95718.13;4951671;28;20718;-70
2021/10/16 07:31:29;;;;;;;23.50;19.80;;;;;;;15.01;53.64;95728.00;4951893;28;20059;-70
2021/10/16 07:33:56;;;;;;;26.98;18.83;;;;;;;15.09;53.47;95713.00;4949954;28;20035;-71
2021/10/16 07:36:22;;;;;;;27.27;20.38;;;;;;;15.45;52.47;95725.22;4951439;28;20055;-70
2021/10/16 07:38:48;;;;;;;22.92;19.73;;;;;;;15.77;52.27;95721.19;4950901;28;20115;-72
2021/10/16 07:41:13;;;;;;;24.88;19.58;;;;;;;15.65;52.07;95729.91;4953410;28;20102;-70
2021/10/16 07:43:38;;;;;;;27.98;20.85;;;;;;;15.28;53.28;95724.16;4949288;28;20050;-70
2021/10/16 07:46:04;;;;;;;23.48;20.08;;;;;;;15.09;53.78;95726.38;4951105;28;20050;-70
2021/10/16 07:48:29;;;;;;;26.42;21.05;;;;;;;14.90;55.09;95729.44;4951473;28;20524;-71
2021/10/16 07:50:54;;;;;;;27.35;21.27;;;;;;;15.50;52.99;95725.03;4950967;28;20031;-70
2021/10/16 07:53:20;;;;;;;26.58;22.15;;;;;;;15.33;52.70;95721.31;4951785;28;20035;-71
2021/10/16 07:55:45;;;;;;;25.25;21.08;;;;;;;15.94;51.43;95717.63;4951359;28;20409;-70
2021/10/16 07:58:11;;;;;;;28.23;21.88;;;;;;;16.49;50.70;95727.41;4951408;28;20106;-72
2021/10/16 08:00:36;;;;;;;24.52;21.42;;;;;;;16.75;49.95;95730.72;4950817;28;20043;-71
2021/10/16 08:03:01;;;;;;;24.98;21.23;;;;;;;17.01;49.45;95719.75;4950922;28;20044;-72
2021/10/16 08:05:27;;;;;;;26.38;21.60;;;;;;;16.72;49.48;95719.84;4952986;28;20024;-70
2021/10/16 08:07:52;;;;;;;28.92;21.17;;;;;;;16.34;50.23;95720.72;4950421;28;20053;-71
2021/10/16 08:10:18;;;;;;;26.33;22.30;;;;;;;16.44;50.77;95731.06;4950449;28;20035;-69
2021/10/16 08:12:43;;;;;;;26.55;22.23;;;;;;;16.09;51.21;95725.13;4950429;28;20028;-69
2021/10/16 08:15:10;;;;;;;26.63;21.58;;;;;;;16.90;49.40;95726.66;4949520;28;20090;-71
2021/10/16 08:17:35;;;;;;;27.70;20.60;;;;;;;17.11;49.29;95726.59;4952635;28;20057;-69
2021/10/16 08:20:02;;;;;;;18.88;16.10;;;;;;;17.25;48.60;95723.59;4950467;28;20324;-69
2021/10/16 08:22:28;;;;;;;19.60;15.10;;;;;;;17.51;48.10;95729.53;4950139;28;20035;-72
2021/10/16 08:24:54;;;;;;;19.30;14.95;;;;;;;17.54;47.85;95723.47;4964934;28;20035;-69
2021/10/16 08:27:20;;;;;;;18.95;14.02;;;;;;;17.50;47.78;95719.06;4950752;28;20405;-72
2021/10/16 08:29:45;;;;;;;16.55;13.73;;;;;;;17.62;47.52;95736.03;4950161;28;20027;-70
2021/10/16 08:32:10;;;;;;;15.35;13.32;;;;;;;17.61;47.41;95729.09;4952663;28;20027;-72
2021/10/16 08:34:36;;;;;;;16.92;15.00;;;;;;;17.63;47.22;95731.44;4950120;28;20067;-70
2021/10/16 08:37:01;;;;;;;17.75;16.00;;;;;;;17.66;47.32;95734.25;4950366;28;20035;-69
2021/10/16 08:39:27;;;;;;;18.00;14.80;;;;;;;17.59;47.37;95742.06;4948929;28;20039;-72
2021/10/16 08:41:52;;;;;;;17.17;15.40;;;;;;;17.66;47.40;95728.88;4950694;28;20046;-71
2021/10/16 08:44:18;;;;;;;19.85;16.23;;;;;;;17.76;47.28;95737.63;4951007;28;20038;-71
2021/10/16 08:46:44;;;;;;;20.15;18.05;;;;;;;17.92;47.14;95731.28;4950498;28;20260;-71
2021/10/16 08:49:14;;;;;;;17.73;15.93;;;;;;;18.01;47.05;95733.84;4950004;28;20183;-72
2021/10/16 08:51:41;;;;;;;16.98;15.32;;;;;;;18.14;46.83;95734.63;4949793;28;20070;-72
2021/10/16 08:54:07;;;;;;;20.83;18.52;;;;;;;18.26;46.54;95740.00;4948936;28;20047;-69
2021/10/16 08:56:32;;;;;;;20.35;18.27;;;;;;;18.37;46.20;95732.25;4950284;28;20031;-72
2021/10/16 08:58:58;;;;;;;24.73;20.83;;;;;;;18.21;46.37;95740.22;4949656;28;20070;-70
2021/10/16 09:01:24;;;;;;;22.05;18.77;;;;;;;18.37;45.98;95738.41;4949863;28;20047;-72
2021/10/16 09:03:54;;;;;;;24.23;19.00;;;;;;;18.42;45.82;95715.84;4949849;28;20426;-70
2021/10/16 09:06:27;;;;;;;21.90;16.63;;;;;;;18.75;45.27;95741.88;4950219;28;20050;-73
2021/10/16 09:09:12;;;;;;;24.15;18.40;;;;;;;18.95;45.00;95738.22;4944691;28;20106;-71
2021/10/16 09:11:39;;;;;;;18.63;16.70;;;;;;;18.98;44.44;95726.72;4952089;28;20051;-71
2021/10/16 09:14:10;;;;;;;20.73;16.45;;;;;;;19.26;44.47;95732.13;4950127;28;20050;-72
2021/10/16 09:16:40;;;;;;;18.93;16.90;;;;;;;19.48;43.89;95723.44;4951208;28;20039;-88
2021/10/16 09:19:16;;;;;;;19.00;16.57;;;;;;;19.81;43.23;95726.97;4949033;28;20047;-78
2021/10/16 09:21:56;;;;;;;18.40;16.52;;;;;;;20.22;42.61;95733.75;4949799;28;20103;-72
2021/10/16 09:24:31;;;;;;;19.42;16.45;;;;;;;20.71;41.42;95727.91;4949175;28;20142;-78
2021/10/16 09:27:02;;;;;;;17.67;15.30;;;;;;;21.48;40.76;95732.53;4950016;28;20023;-72
2021/10/16 09:29:31;;;;;;;18.38;16.48;;;;;;;21.92;39.05;95721.28;4952113;28;20497;-71
2021/10/16 09:32:00;;;;;;;17.63;15.88;;;;;;;20.52;40.09;95734.06;4949746;28;20040;-71
2021/10/16 09:34:33;;;;;;;17.45;15.70;;;;;;;20.99;40.14;95730.41;4948187;28;20726;-71
2021/10/16 09:37:02;;;;;;;16.05;14.43;;;;;;;21.46;39.18;95729.41;4949570;28;20416;-71
2021/10/16 09:39:29;;;;;;;16.95;15.35;;;;;;;20.51;39.75;95732.50;4949950;28;20181;-76
2021/10/16 09:41:54;;;;;;;27.45;17.00;;;;;;;19.56;41.77;95727.13;4951777;28;20765;-87
2021/10/16 09:44:28;;;;;;;18.75;17.00;;;;;;;18.98;43.77;95725.94;4952530;28;20122;-82
2021/10/16 09:47:09;;;;;;;17.85;16.08;;;;;;;18.29;45.75;95738.56;4951066;28;20042;-80
2021/10/16 09:49:45;;;;;;;18.70;14.90;;;;;;;19.03;43.65;95731.88;4949997;28;20663;-77
2021/10/16 09:52:19;;;;;;;14.18;12.77;;;;;;;18.56;43.89;95726.28;4948048;28;20043;-74
2021/10/16 09:54:49;;;;;;;13.55;12.25;;;;;;;19.86;42.23;95729.41;4949173;28;20035;-75
2021/10/16 09:57:19;;;;;;;17.48;15.88;;;;;;;19.49;42.77;95721.53;4949635;28;20089;-75
2021/10/16 09:59:45;;;;;;;16.60;15.10;;;;;;;20.15;41.48;95731.66;4949708;28;20028;-73
2021/10/16 10:02:11;;;;;;;18.20;15.30;;;;;;;19.10;44.08;95717.81;4953635;28;20186;-76
2021/10/16 10:04:39;;;;;;;23.65;16.20;;;;;;;19.34;42.98;95720.38;4949360;28;20513;-83
2021/10/16 10:07:05;;;;;;;15.43;14.02;;;;;;;18.74;44.09;95726.84;4964612;28;20036;-73
2021/10/16 10:09:32;;;;;;;15.70;13.88;;;;;;;18.24;45.32;95714.53;4945479;28;20041;-74
2021/10/16 10:11:59;;;;;;;15.05;13.65;;;;;;;18.71;44.00;95717.50;4954172;28;20486;-83
2021/10/16 10:14:25;;;;;;;14.48;12.98;;;;;;;19.38;42.26;95712.38;4955999;28;20031;-77
2021/10/16 10:17:04;;;;;;;14.75;13.25;;;;;;;20.15;41.64;95720.06;4953261;28;20047;-78
2021/10/16 10:19:31;;;;;;;15.50;13.85;;;;;;;19.36;41.89;95715.44;4952287;28;20039;-71
2021/10/16 10:21:57;;;;;;;13.50;12.18;;;;;;;19.76;42.42;95721.84;4953052;28;20034;-69
2021/10/16 10:24:37;;;;;;;16.02;13.20;;;;;;;19.39;42.50;95722.81;4951003;28;20051;-67
2021/10/16 10:27:08;;;;;;;14.25;12.95;;;;;;;19.80;41.69;95717.31;4951912;28;20034;-73
2021/10/16 10:29:36;;;;;;;14.30;12.33;;;;;;;17.99;44.55;95716.47;4938053;29;20534;-86
2021/10/16 10:32:13;;;;;;;14.90;13.13;;;;;;;19.06;43.42;95731.19;4934486;28;20126;-74
2021/10/16 10:34:42;;;;;;;14.32;12.90;;;;;;;19.32;43.34;95719.94;4933229;28;20040;-71
2021/10/16 10:37:14;;;;;;;14.68;11.80;;;;;;;18.60;44.78;95727.94;4936443;28;20039;-78
2021/10/16 10:39:47;;;;;;;12.88;11.73;;;;;;;18.38;44.34;95723.06;4955033;28;20043;-72
2021/10/16 10:42:12;;;;;;;11.80;10.80;;;;;;;17.51;45.82;95717.97;4953258;28;20082;-72
2021/10/16 10:44:39;;;;;;;11.80;10.50;;;;;;;17.86;45.12;95712.97;4954292;29;20513;-75
2021/10/16 10:47:32;;;;;;;11.30;10.30;;;;;;;17.88;45.24;95726.91;4953706;28;20047;-72
2021/10/16 10:50:09;;;;;;;10.60;9.48;;;;;;;19.48;41.98;95703.78;4951346;29;20074;-75
2021/10/16 10:52:56;;;;;;;11.05;10.00;;;;;;;19.80;41.81;95709.22;4951812;28;20059;-74
2021/10/16 10:55:22;;;;;;;11.65;10.45;;;;;;;19.19;41.79;95707.63;4952657;28;20052;-72
2021/10/16 10:57:52;;;;;;;11.35;10.00;;;;;;;19.91;41.45;95713.75;4952676;28;20038;-75
2021/10/16 11:00:30;;;;;;;10.65;9.70;;;;;;;19.22;42.50;95715.06;4951904;28;20081;-71
2021/10/16 11:02:56;;;;;;;12.23;10.15;;;;;;;20.56;40.19;95712.53;4950849;28;20020;-70
2021/10/16 11:08:09;;;;;;;9.68;8.88;;;;;;;18.86;42.35;95702.53;4951947;28;20050;-72
2021/10/16 11:10:34;;;;;;;9.60;8.60;;;;;;;19.94;40.89;95698.75;4943584;28;20038;-71
2021/10/16 11:13:11;;;;;;;8.02;7.03;;;;;;;19.28;42.07;95710.19;4951223;28;20504;-72
2021/10/16 11:15:38;;;;;;;8.25;7.55;;;;;;;18.42;43.10;95673.53;4952723;28;20105;-72
2021/10/16 11:18:13;;;;;;;8.82;8.10;;;;;;;19.04;43.10;95687.63;4951371;28;20055;-73
2021/10/16 11:20:40;;;;;;;8.35;7.57;;;;;;;18.94;42.70;95674.66;4952292;29;20075;-73
2021/10/16 11:23:06;;;;;;;9.73;8.20;;;;;;;19.98;41.32;95688.84;4950120;29;20746;-71